VTD105 UWSX-UWSG
Flight info
| Callsign | VTD105 |
|---|---|
| Flight time | N/A |
| Altitude | 7000 |
| Route | OKLAL1K/26 OGRER |
| Aircraft | C172/L-SD/C |
Departure
| Time | N/A |
|---|---|
| Airport | UWSX |
Arrival
| Time | 2026-04-26 12:03 |
|---|---|
| Airport | Gagarin International Airport (UWSG) |
| Time | Latitude | Longitude | Altitude | Speed | Heading |
|---|---|---|---|---|---|
| 2026-04-26 12:03 | 51.71253 | 46.17291 | 107 ft | 0 kts | 272° |
| 2026-04-26 12:03 | 51.71253 | 46.17282 | 107 ft | 4 kts | 270° |
| 2026-04-26 12:03 | 51.71262 | 46.16895 | 107 ft | 62 kts | 271° |
| 2026-04-26 12:03 | 51.71276 | 46.16089 | 274 ft | 70 kts | 271° |
| 2026-04-26 12:04 | 51.71280 | 46.15279 | 489 ft | 69 kts | 269° |
| 2026-04-26 12:04 | 51.71281 | 46.14456 | 691 ft | 71 kts | 270° |
| 2026-04-26 12:04 | 51.71290 | 46.13572 | 875 ft | 78 kts | 270° |
| 2026-04-26 12:04 | 51.71283 | 46.12651 | 1105 ft | 80 kts | 270° |
| 2026-04-26 12:05 | 51.71294 | 46.11719 | 1357 ft | 78 kts | 270° |
| 2026-04-26 12:05 | 51.71285 | 46.10804 | 1595 ft | 78 kts | 267° |
| 2026-04-26 12:05 | 51.71278 | 46.09878 | 1813 ft | 79 kts | 269° |
| 2026-04-26 12:05 | 51.71275 | 46.08928 | 2033 ft | 80 kts | 269° |
| 2026-04-26 12:06 | 51.71275 | 46.07960 | 2240 ft | 82 kts | 269° |
| 2026-04-26 12:06 | 51.71267 | 46.06981 | 2454 ft | 83 kts | 269° |
| 2026-04-26 12:06 | 51.71269 | 46.05985 | 2642 ft | 86 kts | 269° |
| 2026-04-26 12:06 | 51.71262 | 46.04986 | 2858 ft | 85 kts | 269° |
| 2026-04-26 12:07 | 51.71267 | 46.03956 | 3053 ft | 86 kts | 269° |
| 2026-04-26 12:07 | 51.71266 | 46.02932 | 3257 ft | 87 kts | 270° |
| 2026-04-26 12:07 | 51.71441 | 46.01998 | 3426 ft | 89 kts | 317° |
| 2026-04-26 12:07 | 51.72006 | 46.01843 | 3617 ft | 87 kts | 24° |
| 2026-04-26 12:08 | 51.72314 | 46.02651 | 3777 ft | 88 kts | 92° |
| 2026-04-26 12:08 | 51.72225 | 46.03665 | 4009 ft | 83 kts | 97° |
| 2026-04-26 12:08 | 51.72159 | 46.04630 | 4204 ft | 82 kts | 94° |
| 2026-04-26 12:08 | 51.72078 | 46.05591 | 4367 ft | 84 kts | 101° |
| 2026-04-26 12:09 | 51.71977 | 46.06553 | 4569 ft | 82 kts | 98° |
| 2026-04-26 12:09 | 51.71894 | 46.07549 | 4733 ft | 84 kts | 96° |
| 2026-04-26 12:09 | 51.71815 | 46.08566 | 4908 ft | 86 kts | 98° |
| 2026-04-26 12:09 | 51.71714 | 46.09645 | 4931 ft | 97 kts | 98° |
| 2026-04-26 12:10 | 51.71590 | 46.10896 | 4919 ft | 108 kts | 99° |
| 2026-04-26 12:10 | 51.71451 | 46.12206 | 4976 ft | 109 kts | 99° |
| 2026-04-26 12:10 | 51.71318 | 46.13569 | 4961 ft | 113 kts | 98° |
| 2026-04-26 12:10 | 51.71215 | 46.14938 | 4919 ft | 112 kts | 96° |
| 2026-04-26 12:11 | 51.71120 | 46.16295 | 4902 ft | 110 kts | 96° |
| 2026-04-26 12:11 | 51.71052 | 46.17616 | 4896 ft | 108 kts | 91° |
| 2026-04-26 12:11 | 51.71068 | 46.18925 | 4895 ft | 108 kts | 82° |
| 2026-04-26 12:11 | 51.71216 | 46.20192 | 4898 ft | 108 kts | 80° |
| 2026-04-26 12:12 | 51.71334 | 46.21400 | 4867 ft | 109 kts | 81° |
| 2026-04-26 12:12 | 51.71439 | 46.22636 | 4795 ft | 110 kts | 82° |
| 2026-04-26 12:12 | 51.71563 | 46.23876 | 4652 ft | 114 kts | 79° |
| 2026-04-26 12:12 | 51.71662 | 46.24719 | 4572 ft | 115 kts | 78° |
| 2026-04-26 12:13 | 51.71917 | 46.26477 | 4461 ft | 111 kts | 76° |
| 2026-04-26 12:13 | 51.72105 | 46.27838 | 4331 ft | 113 kts | 76° |
| 2026-04-26 12:13 | 51.72352 | 46.29182 | 4224 ft | 112 kts | 75° |
| 2026-04-26 12:13 | 51.72500 | 46.30591 | 4042 ft | 114 kts | 83° |
| 2026-04-26 12:14 | 51.72592 | 46.31873 | 3903 ft | 112 kts | 83° |
| 2026-04-26 12:14 | 51.72689 | 46.33201 | 3672 ft | 109 kts | 79° |
| 2026-04-26 12:14 | 51.72847 | 46.34504 | 3465 ft | 106 kts | 78° |
| 2026-04-26 12:14 | 51.72998 | 46.35788 | 3266 ft | 104 kts | 79° |
| 2026-04-26 12:15 | 51.73142 | 46.37038 | 3120 ft | 100 kts | 77° |
| 2026-04-26 12:15 | 51.73296 | 46.38251 | 3036 ft | 102 kts | 78° |
| 2026-04-26 12:15 | 51.73442 | 46.39483 | 2988 ft | 103 kts | 79° |
| 2026-04-26 12:15 | 51.73588 | 46.40702 | 2948 ft | 103 kts | 80° |
| 2026-04-26 12:16 | 51.73735 | 46.41950 | 2786 ft | 105 kts | 78° |
| 2026-04-26 12:16 | 51.73893 | 46.43240 | 2591 ft | 104 kts | 79° |
| 2026-04-26 12:16 | 51.74002 | 46.44523 | 2357 ft | 103 kts | 92° |
| 2026-04-26 12:16 | 51.73674 | 46.45628 | 2112 ft | 103 kts | 143° |
| 2026-04-26 12:17 | 51.72958 | 46.45892 | 2032 ft | 98 kts | 181° |
| 2026-04-26 12:17 | 51.72237 | 46.45726 | 2031 ft | 95 kts | 208° |
| 2026-04-26 12:17 | 51.71809 | 46.44877 | 2059 ft | 92 kts | 234° |
| 2026-04-26 12:17 | 51.71409 | 46.43976 | 2041 ft | 94 kts | 233° |
| 2026-04-26 12:18 | 51.71168 | 46.42975 | 2044 ft | 94 kts | 259° |
| 2026-04-26 12:18 | 51.71103 | 46.41813 | 1974 ft | 95 kts | 264° |
| 2026-04-26 12:18 | 51.71085 | 46.40651 | 1828 ft | 99 kts | 269° |
| 2026-04-26 12:18 | 51.71096 | 46.39449 | 1732 ft | 99 kts | 270° |
| 2026-04-26 12:19 | 51.71123 | 46.38228 | 1634 ft | 99 kts | 270° |
| 2026-04-26 12:19 | 51.71149 | 46.37025 | 1540 ft | 98 kts | 270° |
| 2026-04-26 12:19 | 51.71165 | 46.35929 | 1558 ft | 83 kts | 268° |
| 2026-04-26 12:19 | 51.71157 | 46.34946 | 1529 ft | 80 kts | 267° |
| 2026-04-26 12:20 | 51.71149 | 46.33969 | 1528 ft | 82 kts | 266° |
| 2026-04-26 12:20 | 51.71126 | 46.32986 | 1541 ft | 82 kts | 265° |
| 2026-04-26 12:20 | 51.71092 | 46.32014 | 1560 ft | 81 kts | 264° |
| 2026-04-26 12:20 | 51.71088 | 46.31056 | 1576 ft | 80 kts | 267° |
| 2026-04-26 12:21 | 51.71087 | 46.30129 | 1488 ft | 73 kts | 268° |
| 2026-04-26 12:21 | 51.71081 | 46.29305 | 1384 ft | 70 kts | 267° |
| 2026-04-26 12:21 | 51.71067 | 46.28468 | 1277 ft | 69 kts | 268° |
| 2026-04-26 12:21 | 51.71058 | 46.27639 | 1155 ft | 71 kts | 270° |
| 2026-04-26 12:22 | 51.71057 | 46.26784 | 1045 ft | 71 kts | 268° |
| 2026-04-26 12:22 | 51.71042 | 46.25943 | 934 ft | 71 kts | 270° |
| 2026-04-26 12:22 | 51.71051 | 46.25082 | 812 ft | 72 kts | 271° |
| 2026-04-26 12:22 | 51.71072 | 46.24221 | 684 ft | 73 kts | 271° |
| 2026-04-26 12:23 | 51.71081 | 46.23369 | 575 ft | 72 kts | 270° |
| 2026-04-26 12:23 | 51.71088 | 46.22509 | 456 ft | 72 kts | 273° |
| 2026-04-26 12:23 | 51.71125 | 46.21658 | 366 ft | 70 kts | 274° |
| 2026-04-26 12:23 | 51.71162 | 46.20831 | 286 ft | 69 kts | 274° |
| 2026-04-26 12:24 | 51.71188 | 46.20019 | 208 ft | 69 kts | 271° |
| 2026-04-26 12:24 | 51.71207 | 46.19226 | 124 ft | 62 kts | 271° |
| 2026-04-26 12:24 | 51.71224 | 46.18540 | 107 ft | 50 kts | 272° |
| 2026-04-26 12:25 | 51.71257 | 46.16958 | 403 ft | 72 kts | 269° |
| 2026-04-26 12:25 | 51.71259 | 46.16148 | 601 ft | 74 kts | 269° |
| 2026-04-26 12:25 | 51.71243 | 46.15237 | 770 ft | 83 kts | 268° |
| 2026-04-26 12:25 | 51.71236 | 46.14328 | 1016 ft | 82 kts | 269° |
| 2026-04-26 12:26 | 51.71220 | 46.13380 | 1244 ft | 83 kts | 266° |
| 2026-04-26 12:26 | 51.71034 | 46.12495 | 1499 ft | 82 kts | 240° |
| 2026-04-26 12:26 | 51.70719 | 46.11676 | 1725 ft | 84 kts | 239° |
| 2026-04-26 12:26 | 51.70403 | 46.10842 | 1942 ft | 86 kts | 240° |
| 2026-04-26 12:27 | 51.70031 | 46.10048 | 2180 ft | 86 kts | 212° |
| 2026-04-26 12:27 | 51.69400 | 46.09785 | 2345 ft | 94 kts | 175° |
| 2026-04-26 12:27 | 51.68733 | 46.09841 | 2592 ft | 90 kts | 196° |
| 2026-04-26 12:27 | 51.68156 | 46.09275 | 2799 ft | 92 kts | 216° |
| 2026-04-26 12:28 | 51.67570 | 46.08778 | 3026 ft | 92 kts | 198° |
| 2026-04-26 12:28 | 51.66980 | 46.08247 | 3083 ft | 102 kts | 235° |
| 2026-04-26 12:28 | 51.66758 | 46.07100 | 3068 ft | 110 kts | 254° |
| 2026-04-26 12:28 | 51.66504 | 46.05962 | 3099 ft | 106 kts | 244° |
| 2026-04-26 12:29 | 51.66194 | 46.04868 | 3086 ft | 108 kts | 245° |
| 2026-04-26 12:29 | 51.65835 | 46.03719 | 3078 ft | 109 kts | 242° |
| 2026-04-26 12:29 | 51.65097 | 46.01407 | 3083 ft | 108 kts | 240° |
| 2026-04-26 12:30 | 51.64698 | 46.00270 | 3074 ft | 109 kts | 240° |
| 2026-04-26 12:30 | 51.64278 | 45.99216 | 3064 ft | 109 kts | 236° |
| 2026-04-26 12:30 | 51.63852 | 45.98080 | 3067 ft | 109 kts | 240° |
| 2026-04-26 12:31 | 51.63116 | 45.95799 | 3070 ft | 108 kts | 241° |
| 2026-04-26 12:31 | 51.62755 | 45.94664 | 3072 ft | 108 kts | 243° |
| 2026-04-26 12:31 | 51.62396 | 45.93563 | 3085 ft | 107 kts | 241° |
| 2026-04-26 12:31 | 51.62003 | 45.92453 | 3083 ft | 107 kts | 240° |
| 2026-04-26 12:32 | 51.61589 | 45.91315 | 3078 ft | 108 kts | 239° |
| 2026-04-26 12:32 | 51.61149 | 45.90188 | 3078 ft | 108 kts | 238° |
| 2026-04-26 12:32 | 51.60405 | 45.88060 | 3114 ft | 107 kts | 241° |
| 2026-04-26 12:33 | 51.60031 | 45.86903 | 3096 ft | 108 kts | 243° |
| 2026-04-26 12:33 | 51.59640 | 45.85721 | 3090 ft | 108 kts | 242° |
| 2026-04-26 12:33 | 51.59265 | 45.84555 | 3110 ft | 107 kts | 242° |
| 2026-04-26 12:33 | 51.58878 | 45.83360 | 3081 ft | 110 kts | 244° |
| 2026-04-26 12:34 | 51.58466 | 45.82149 | 3070 ft | 110 kts | 242° |
| 2026-04-26 12:34 | 51.58066 | 45.81002 | 3081 ft | 108 kts | 240° |
| 2026-04-26 12:34 | 51.57759 | 45.79883 | 3059 ft | 110 kts | 264° |
| 2026-04-26 12:34 | 51.57773 | 45.78596 | 3083 ft | 108 kts | 271° |
| 2026-04-26 12:35 | 51.57790 | 45.77288 | 3075 ft | 109 kts | 271° |
| 2026-04-26 12:35 | 51.57802 | 45.76028 | 3050 ft | 111 kts | 271° |
| 2026-04-26 12:35 | 51.57819 | 45.74681 | 3041 ft | 111 kts | 271° |
| 2026-04-26 12:35 | 51.57699 | 45.73448 | 3066 ft | 107 kts | 239° |
| 2026-04-26 12:36 | 51.57006 | 45.72837 | 3053 ft | 106 kts | 178° |
| 2026-04-26 12:36 | 51.56363 | 45.73494 | 3058 ft | 105 kts | 118° |
| 2026-04-26 12:36 | 51.56381 | 45.74648 | 3055 ft | 105 kts | 65° |
| 2026-04-26 12:36 | 51.56661 | 45.75827 | 3067 ft | 104 kts | 71° |
| 2026-04-26 12:37 | 51.56936 | 45.77009 | 3062 ft | 105 kts | 70° |
| 2026-04-26 12:37 | 51.57194 | 45.78182 | 3053 ft | 106 kts | 71° |
| 2026-04-26 12:37 | 51.57511 | 45.79325 | 3062 ft | 106 kts | 63° |
| 2026-04-26 12:37 | 51.57857 | 45.80391 | 3081 ft | 106 kts | 61° |
| 2026-04-26 12:38 | 51.58322 | 45.81364 | 3065 ft | 108 kts | 31° |
| 2026-04-26 12:38 | 51.59091 | 45.81416 | 3055 ft | 109 kts | 334° |
| 2026-04-26 12:38 | 51.59528 | 45.80483 | 3069 ft | 107 kts | 280° |
| 2026-04-26 12:38 | 51.59310 | 45.79223 | 3035 ft | 109 kts | 240° |
| 2026-04-26 12:39 | 51.58920 | 45.78092 | 3089 ft | 105 kts | 240° |
| 2026-04-26 12:39 | 51.58514 | 45.76934 | 3081 ft | 107 kts | 239° |
| 2026-04-26 12:39 | 51.58104 | 45.75748 | 3050 ft | 110 kts | 241° |
| 2026-04-26 12:39 | 51.57697 | 45.74549 | 3058 ft | 108 kts | 241° |
| 2026-04-26 12:40 | 51.57137 | 45.73627 | 3075 ft | 105 kts | 199° |
| 2026-04-26 12:40 | 51.56373 | 45.73847 | 3041 ft | 108 kts | 142° |
| 2026-04-26 12:40 | 51.56067 | 45.74965 | 3039 ft | 108 kts | 86° |
| 2026-04-26 12:40 | 51.56384 | 45.76151 | 3031 ft | 108 kts | 65° |
| 2026-04-26 12:41 | 51.56722 | 45.77312 | 3049 ft | 106 kts | 62° |
| 2026-04-26 12:41 | 51.57071 | 45.78478 | 3043 ft | 107 kts | 63° |
| 2026-04-26 12:41 | 51.57454 | 45.79612 | 3047 ft | 107 kts | 63° |
| 2026-04-26 12:41 | 51.57823 | 45.80725 | 3047 ft | 107 kts | 62° |
| 2026-04-26 12:42 | 51.58454 | 45.81423 | 3048 ft | 106 kts | 6° |
| 2026-04-26 12:42 | 51.59157 | 45.80950 | 3049 ft | 106 kts | 308° |
| 2026-04-26 12:42 | 51.59271 | 45.79735 | 3040 ft | 106 kts | 249° |
| 2026-04-26 12:42 | 51.58886 | 45.78593 | 3062 ft | 104 kts | 241° |
| 2026-04-26 12:43 | 51.58496 | 45.77427 | 3041 ft | 107 kts | 242° |
| 2026-04-26 12:43 | 51.58096 | 45.76230 | 3042 ft | 107 kts | 241° |
| 2026-04-26 12:43 | 51.57697 | 45.75069 | 3053 ft | 106 kts | 242° |
| 2026-04-26 12:43 | 51.57194 | 45.74056 | 3050 ft | 107 kts | 207° |
| 2026-04-26 12:44 | 51.56410 | 45.74121 | 3033 ft | 107 kts | 147° |
| 2026-04-26 12:44 | 51.56070 | 45.75211 | 3039 ft | 106 kts | 87° |
| 2026-04-26 12:44 | 51.56381 | 45.76400 | 3048 ft | 105 kts | 63° |
| 2026-04-26 12:44 | 51.56744 | 45.77519 | 3048 ft | 107 kts | 63° |
| 2026-04-26 12:45 | 51.57102 | 45.78631 | 3056 ft | 107 kts | 62° |
| 2026-04-26 12:45 | 51.57467 | 45.79737 | 3062 ft | 108 kts | 63° |
| 2026-04-26 12:45 | 51.57828 | 45.80846 | 3071 ft | 107 kts | 56° |
| 2026-04-26 12:45 | 51.58508 | 45.81388 | 3056 ft | 109 kts | 356° |
| 2026-04-26 12:46 | 51.59157 | 45.80714 | 3059 ft | 108 kts | 297° |
| 2026-04-26 12:46 | 51.59130 | 45.79442 | 3042 ft | 109 kts | 245° |
| 2026-04-26 12:46 | 51.58758 | 45.78254 | 3057 ft | 108 kts | 242° |
| 2026-04-26 12:46 | 51.58357 | 45.77096 | 3061 ft | 108 kts | 240° |
| 2026-04-26 12:47 | 51.57938 | 45.75918 | 3073 ft | 108 kts | 240° |
| 2026-04-26 12:47 | 51.57535 | 45.74753 | 3070 ft | 109 kts | 241° |
| 2026-04-26 12:47 | 51.56925 | 45.73943 | 3056 ft | 110 kts | 192° |
| 2026-04-26 12:47 | 51.56183 | 45.74290 | 3063 ft | 108 kts | 137° |
| 2026-04-26 12:48 | 51.55916 | 45.75433 | 3044 ft | 110 kts | 84° |
| 2026-04-26 12:48 | 51.56280 | 45.76615 | 3029 ft | 110 kts | 58° |
| 2026-04-26 12:48 | 51.56666 | 45.77718 | 3065 ft | 107 kts | 60° |
| 2026-04-26 12:48 | 51.57067 | 45.78812 | 3066 ft | 108 kts | 59° |
| 2026-04-26 12:49 | 51.57484 | 45.79945 | 3052 ft | 110 kts | 59° |
| 2026-04-26 12:49 | 51.57895 | 45.81026 | 3066 ft | 108 kts | 52° |